Time;durP1;ratioP1;P1;durP2;ratioP2;P2;SDS_P1;SDS_P2;PMS_P1;PMS_P2;Temp;Humidity;BMP_temperature;BMP_pressure;BME280_temperature;BME280_humidity;BME280_pressure;Samples;Min_cycle;Max_cycle;Signal;HPM_P1;HPM_P2
2022/09/01 00:01:36;;;;;;;3.63;1.20;;;18.10;59.10;;;;;;4933300;29;20052;-72
2022/09/01 00:04:03;;;;;;;3.83;1.37;;;18.10;59.10;;;;;;4930654;28;20059;-72
2022/09/01 00:06:33;;;;;;;5.20;1.38;;;18.00;59.10;;;;;;4934840;28;20244;-72
2022/09/01 00:09:04;;;;;;;4.53;1.30;;;18.00;59.20;;;;;;4934663;28;20051;-72
2022/09/01 00:11:33;;;;;;;4.93;1.30;;;18.00;59.20;;;;;;4934304;28;20490;-72
2022/09/01 00:14:01;;;;;;;3.53;1.23;;;18.00;59.30;;;;;;4935202;28;20062;-71
2022/09/01 00:16:29;;;;;;;5.13;1.27;;;17.90;59.20;;;;;;4951543;28;20506;-72
2022/09/01 00:18:57;;;;;;;3.30;1.05;;;17.90;59.30;;;;;;4933168;28;20295;-72
2022/09/01 00:21:27;;;;;;;3.85;1.38;;;17.80;59.40;;;;;;4936410;28;20138;-72
2022/09/01 00:23:55;;;;;;;4.22;1.58;;;17.80;59.60;;;;;;4939638;28;20055;-72
2022/09/01 00:26:22;;;;;;;3.70;1.50;;;17.80;59.60;;;;;;4956553;28;20628;-72
2022/09/01 00:28:50;;;;;;;3.73;1.20;;;17.70;59.50;;;;;;4955881;28;20150;-72
2022/09/01 00:31:17;;;;;;;3.85;1.23;;;17.70;59.60;;;;;;4940564;28;20241;-71
2022/09/01 00:33:44;;;;;;;3.35;1.13;;;17.60;59.70;;;;;;4941231;28;20048;-72
2022/09/01 00:36:12;;;;;;;5.13;1.13;;;17.60;59.50;;;;;;4941321;28;20058;-71
2022/09/01 00:38:39;;;;;;;3.38;1.25;;;17.60;59.60;;;;;;4923708;28;20063;-72
2022/09/01 00:41:08;;;;;;;3.40;1.17;;;17.50;59.60;;;;;;4940802;28;20048;-72
2022/09/01 00:43:39;;;;;;;3.50;1.10;;;17.50;59.60;;;;;;4941770;28;20375;-72
2022/09/01 00:46:08;;;;;;;4.75;1.30;;;17.50;59.70;;;;;;4941654;28;20522;-71
2022/09/01 00:48:36;;;;;;;3.40;1.00;;;17.50;59.70;;;;;;4957382;28;20052;-71
2022/09/01 00:51:04;;;;;;;5.45;1.13;;;17.50;59.70;;;;;;4957059;28;20068;-72
2022/09/01 00:53:32;;;;;;;3.07;1.07;;;17.40;59.70;;;;;;4941316;28;20044;-72
2022/09/01 00:55:59;;;;;;;3.38;1.20;;;17.40;59.70;;;;;;4941264;28;20782;-72
2022/09/01 00:58:28;;;;;;;2.75;1.10;;;17.40;59.70;;;;;;4941248;28;20056;-72
2022/09/01 01:00:55;;;;;;;3.05;1.20;;;17.30;59.70;;;;;;4940933;28;20055;-72
2022/09/01 01:03:23;;;;;;;4.57;1.20;;;17.30;59.80;;;;;;4941344;28;20098;-72
2022/09/01 01:05:56;;;;;;;3.77;1.30;;;17.20;59.80;;;;;;4941113;28;20510;-71
2022/09/01 01:08:32;;;;;;;3.97;1.20;;;17.20;60.00;;;;;;4941314;28;20263;-72
2022/09/01 01:11:01;;;;;;;4.88;1.30;;;17.20;60.00;;;;;;4940807;28;20077;-72
2022/09/01 01:13:30;;;;;;;3.85;1.10;;;17.20;60.00;;;;;;4940799;28;20098;-71
2022/09/01 01:15:59;;;;;;;3.70;1.15;;;17.20;60.00;;;;;;4958407;28;20059;-72
2022/09/01 01:18:26;;;;;;;3.87;1.20;;;17.10;60.20;;;;;;4956893;28;20047;-72
2022/09/01 01:23:52;;;;;;;2.90;1.05;;;17.00;59.80;;;;;;4957127;28;20595;-71
2022/09/01 01:26:20;;;;;;;3.85;1.25;;;17.00;60.00;;;;;;4956729;28;20051;-71
2022/09/01 01:28:47;;;;;;;3.88;1.20;;;17.00;60.00;;;;;;4940735;28;20071;-72
2022/09/01 01:31:20;;;;;;;4.37;1.47;;;17.00;60.00;;;;;;4924887;28;20043;-71
2022/09/01 01:33:50;;;;;;;2.88;1.10;;;16.90;60.10;;;;;;4937228;28;20280;-71
2022/09/01 01:36:29;;;;;;;4.10;1.20;;;16.90;60.20;;;;;;4921907;28;20048;-71
2022/09/01 01:39:01;;;;;;;3.10;1.10;;;16.90;60.30;;;;;;4953243;28;20158;-72
2022/09/01 01:41:32;;;;;;;2.72;1.10;;;16.80;60.30;;;;;;4953573;28;20055;-71
2022/09/01 01:44:03;;;;;;;3.53;1.00;;;16.80;60.40;;;;;;4921707;28;20055;-71
2022/09/01 01:46:31;;;;;;;2.90;1.15;;;16.80;60.50;;;;;;4937650;28;20264;-72
2022/09/01 01:49:00;;;;;;;3.05;1.25;;;16.80;60.50;;;;;;4953172;28;20082;-71
2022/09/01 01:51:30;;;;;;;5.05;1.40;;;16.70;60.70;;;;;;4951081;28;20052;-71
2022/09/01 01:53:58;;;;;;;4.15;1.38;;;16.70;60.70;;;;;;4953246;28;20048;-71
2022/09/01 01:56:25;;;;;;;4.20;1.30;;;16.70;60.60;;;;;;4937207;28;20622;-72
2022/09/01 01:58:56;;;;;;;3.60;1.60;;;16.60;60.70;;;;;;4937086;28;20252;-72
2022/09/01 02:01:27;;;;;;;3.97;1.30;;;16.60;60.70;;;;;;4937279;28;20112;-71
2022/09/01 02:03:55;;;;;;;4.57;1.40;;;16.60;60.70;;;;;;4921495;28;20059;-71
2022/09/01 02:06:25;;;;;;;4.47;1.42;;;16.50;60.70;;;;;;4953163;28;20051;-72
2022/09/01 02:08:57;;;;;;;3.73;1.50;;;16.50;60.80;;;;;;4936943;28;20155;-72
2022/09/01 02:11:26;;;;;;;3.20;1.30;;;16.50;60.80;;;;;;4921315;28;20248;-71
2022/09/01 02:13:56;;;;;;;3.40;1.20;;;16.40;60.90;;;;;;4921218;28;20135;-71
2022/09/01 02:16:24;;;;;;;3.15;1.45;;;16.40;61.00;;;;;;4937028;28;20195;-72
2022/09/01 02:18:52;;;;;;;3.40;1.45;;;16.40;61.10;;;;;;4936557;28;20083;-72
2022/09/01 02:21:23;;;;;;;3.63;1.40;;;16.40;61.20;;;;;;4954436;28;20063;-71
2022/09/01 02:23:56;;;;;;;5.75;1.40;;;16.30;61.20;;;;;;4936998;28;20272;-71
2022/09/01 02:26:30;;;;;;;3.65;1.10;;;16.30;61.20;;;;;;4951148;28;20084;-71
2022/09/01 02:29:02;;;;;;;3.15;1.23;;;16.30;61.10;;;;;;4971638;28;20668;-72
2022/09/01 02:31:30;;;;;;;3.38;1.10;;;16.30;61.20;;;;;;4940252;28;20061;-72
2022/09/01 02:34:00;;;;;;;2.80;1.20;;;16.20;61.30;;;;;;4940310;28;20087;-72
2022/09/01 02:36:31;;;;;;;3.25;1.30;;;16.20;61.30;;;;;;4956125;28;20291;-71
2022/09/01 02:38:58;;;;;;;3.20;1.27;;;16.20;61.20;;;;;;4955943;28;20062;-72
2022/09/01 02:41:27;;;;;;;3.30;1.20;;;16.20;61.20;;;;;;4955561;28;20483;-72
2022/09/01 02:43:56;;;;;;;3.28;1.20;;;16.10;61.20;;;;;;4971565;28;20110;-72
2022/09/01 02:46:25;;;;;;;9.57;1.60;;;16.10;61.50;;;;;;4956026;28;20051;-72
2022/09/01 02:48:53;;;;;;;3.85;1.10;;;16.10;61.50;;;;;;4971827;28;20350;-71
2022/09/01 02:51:24;;;;;;;4.15;1.15;;;16.00;61.50;;;;;;4955792;28;20143;-72
2022/09/01 02:53:52;;;;;;;3.30;1.30;;;16.00;61.40;;;;;;4939629;28;20102;-72
2022/09/01 02:56:21;;;;;;;3.40;1.30;;;16.00;61.50;;;;;;4939109;28;20078;-72
2022/09/01 02:58:49;;;;;;;3.20;1.30;;;16.00;61.60;;;;;;4934340;28;20057;-72
2022/09/01 03:01:21;;;;;;;2.95;1.40;;;16.00;61.60;;;;;;4936425;28;20257;-72
2022/09/01 03:03:53;;;;;;;3.53;1.40;;;16.00;61.70;;;;;;4920454;28;20067;-72
2022/09/01 03:06:22;;;;;;;3.53;1.38;;;16.00;61.70;;;;;;4952455;28;20051;-72
2022/09/01 03:08:51;;;;;;;3.78;1.52;;;15.90;61.80;;;;;;4952237;28;20052;-71
2022/09/01 03:11:18;;;;;;;7.60;1.50;;;15.80;61.90;;;;;;4936448;28;20111;-71
2022/09/01 03:13:45;;;;;;;3.13;1.35;;;15.80;62.00;;;;;;4920511;28;20288;-71
2022/09/01 03:16:13;;;;;;;3.80;1.33;;;15.80;62.10;;;;;;4952395;28;20051;-72
2022/09/01 03:18:41;;;;;;;4.28;1.40;;;15.80;62.20;;;;;;4936277;28;20047;-71
2022/09/01 03:21:15;;;;;;;3.50;1.30;;;15.80;62.10;;;;;;4951734;28;20055;-71
2022/09/01 03:23:44;;;;;;;4.10;1.30;;;15.80;62.20;;;;;;4920324;28;20541;-71
2022/09/01 03:26:11;;;;;;;3.53;1.13;;;15.80;62.10;;;;;;4919830;28;20284;-71
2022/09/01 03:28:38;;;;;;;3.92;1.13;;;15.80;62.30;;;;;;4936086;28;20417;-71
2022/09/01 03:31:06;;;;;;;4.00;1.40;;;15.80;62.30;;;;;;4953530;28;20070;-71
2022/09/01 03:33:33;;;;;;;3.00;1.20;;;15.70;62.20;;;;;;4942730;28;20047;-71
2022/09/01 03:36:01;;;;;;;5.93;1.30;;;15.70;62.40;;;;;;4955302;28;20063;-71
2022/09/01 03:38:30;;;;;;;5.05;1.30;;;15.60;62.40;;;;;;4954826;28;20338;-71
2022/09/01 03:41:00;;;;;;;4.40;1.42;;;15.60;62.50;;;;;;4954860;28;20051;-71
2022/09/01 03:43:29;;;;;;;4.15;1.40;;;15.60;62.60;;;;;;4971166;28;20082;-71
2022/09/01 03:45:59;;;;;;;4.55;1.70;;;15.60;62.80;;;;;;4938494;28;20043;-72
2022/09/01 03:48:28;;;;;;;5.10;1.30;;;15.60;62.90;;;;;;4954948;28;20055;-71
2022/09/01 03:51:01;;;;;;;4.35;1.50;;;15.50;62.90;;;;;;4970880;28;21079;-72
2022/09/01 03:53:32;;;;;;;3.75;1.50;;;15.50;63.00;;;;;;4938991;28;20059;-72
2022/09/01 03:56:00;;;;;;;4.65;1.40;;;15.50;63.20;;;;;;4937828;28;20063;-71
2022/09/01 03:58:27;;;;;;;3.30;1.50;;;15.50;63.20;;;;;;4955120;28;20055;-71
2022/09/01 04:01:00;;;;;;;3.07;1.40;;;15.50;63.20;;;;;;4970394;28;20051;-71
2022/09/01 04:03:30;;;;;;;3.50;1.52;;;15.50;63.20;;;;;;4938692;28;20849;-71
2022/09/01 04:05:59;;;;;;;4.05;1.40;;;15.50;63.10;;;;;;4938739;28;20047;-71
2022/09/01 04:08:29;;;;;;;4.47;1.40;;;15.50;63.20;;;;;;4921602;28;20048;-71
2022/09/01 04:11:01;;;;;;;3.58;1.30;;;15.40;63.30;;;;;;4934985;28;20055;-72
2022/09/01 04:13:35;;;;;;;4.43;1.40;;;15.40;63.30;;;;;;4935377;28;20044;-71
2022/09/01 04:16:09;;;;;;;5.00;1.60;;;15.40;63.40;;;;;;4919452;28;20347;-71
2022/09/01 04:18:35;;;;;;;4.35;1.42;;;15.40;63.40;;;;;;4951300;28;20054;-72
2022/09/01 04:21:05;;;;;;;3.42;1.48;;;15.40;63.40;;;;;;4934762;28;20107;-71
2022/09/01 04:23:35;;;;;;;3.88;1.50;;;15.40;63.40;;;;;;4934752;28;20983;-71
2022/09/01 04:26:13;;;;;;;4.00;1.40;;;15.40;63.50;;;;;;4934551;28;20047;-71
2022/09/01 04:28:44;;;;;;;4.13;1.55;;;15.40;63.70;;;;;;4934867;28;20260;-72
2022/09/01 04:31:17;;;;;;;4.22;1.58;;;15.30;63.70;;;;;;4934814;28;20447;-71
2022/09/01 04:33:47;;;;;;;3.42;1.23;;;15.30;63.80;;;;;;4934776;28;20052;-71
2022/09/01 04:36:18;;;;;;;3.97;1.40;;;15.30;63.90;;;;;;4934987;28;20162;-71
2022/09/01 04:38:46;;;;;;;4.30;1.40;;;15.30;63.90;;;;;;4919046;28;20525;-71
2022/09/01 04:41:16;;;;;;;4.75;1.40;;;15.30;63.90;;;;;;4950704;28;20331;-72
2022/09/01 04:43:43;;;;;;;3.25;1.40;;;15.20;64.10;;;;;;4935168;28;20047;-72
2022/09/01 04:46:13;;;;;;;3.15;1.40;;;15.20;64.10;;;;;;4934938;28;20510;-71
2022/09/01 04:48:42;;;;;;;3.33;1.70;;;15.20;64.20;;;;;;4935311;28;20055;-72
2022/09/01 04:51:11;;;;;;;4.10;1.47;;;15.20;64.20;;;;;;4935256;28;20083;-72
2022/09/01 04:53:51;;;;;;;3.53;1.48;;;15.20;64.20;;;;;;4934901;28;21186;-71
2022/09/01 04:56:21;;;;;;;3.15;1.42;;;15.20;64.20;;;;;;4934645;28;20918;-71
2022/09/01 04:59:05;;;;;;;4.07;1.50;;;15.20;64.30;;;;;;4934354;28;20124;-71
2022/09/01 05:01:41;;;;;;;3.63;1.42;;;15.20;64.30;;;;;;4950552;28;20805;-72
2022/09/01 05:04:11;;;;;;;5.40;1.53;;;15.20;64.40;;;;;;4934739;28;20047;-71
2022/09/01 05:06:41;;;;;;;3.40;1.40;;;15.20;64.40;;;;;;4934691;28;20275;-71
2022/09/01 05:09:10;;;;;;;3.65;1.50;;;15.20;64.40;;;;;;4937535;28;20047;-71
2022/09/01 05:12:07;;;;;;;3.50;1.60;;;15.20;64.50;;;;;;4937760;28;20058;-72
2022/09/01 05:14:35;;;;;;;3.47;1.60;;;15.20;64.50;;;;;;4938287;28;20060;-71
2022/09/01 05:17:05;;;;;;;3.63;1.57;;;15.10;64.50;;;;;;4935741;28;20044;-72
2022/09/01 05:19:33;;;;;;;3.67;1.80;;;15.10;64.50;;;;;;4920195;28;20271;-71
2022/09/01 05:22:01;;;;;;;3.70;1.60;;;15.10;64.70;;;;;;4932250;28;20112;-71
2022/09/01 05:24:30;;;;;;;3.83;1.50;;;15.00;64.60;;;;;;4937165;28;20458;-71
2022/09/01 05:27:04;;;;;;;4.20;1.58;;;15.00;64.80;;;;;;4919218;28;20052;-72
2022/09/01 05:29:33;;;;;;;5.20;1.67;;;15.00;65.00;;;;;;4921542;28;20048;-71
2022/09/01 05:32:07;;;;;;;7.78;1.70;;;15.00;65.10;;;;;;4929449;28;20413;-71
2022/09/01 05:34:36;;;;;;;3.95;1.55;;;15.00;65.10;;;;;;4921937;28;20055;-71
2022/09/01 05:37:05;;;;;;;3.65;1.48;;;15.00;65.20;;;;;;4921395;28;20099;-71
2022/09/01 05:39:34;;;;;;;4.25;1.40;;;15.00;65.10;;;;;;4920424;28;20059;-71
2022/09/01 05:42:03;;;;;;;3.87;1.80;;;15.00;65.40;;;;;;4932489;28;20554;-72
2022/09/01 05:44:29;;;;;;;3.33;1.40;;;15.00;65.50;;;;;;4937022;28;20295;-71
2022/09/01 05:46:59;;;;;;;5.32;1.63;;;14.90;65.50;;;;;;4920818;28;20039;-72
2022/09/01 05:49:31;;;;;;;6.78;2.00;;;14.90;65.70;;;;;;4934936;28;20104;-71
2022/09/01 05:52:00;;;;;;;4.22;1.70;;;14.90;65.80;;;;;;4920747;28;20155;-72
2022/09/01 05:54:31;;;;;;;5.03;1.90;;;14.90;65.90;;;;;;4944272;28;20108;-72
2022/09/01 05:56:58;;;;;;;3.60;1.60;;;15.00;66.00;;;;;;4920787;28;20248;-71
2022/09/01 05:59:30;;;;;;;15.18;2.70;;;15.00;66.00;;;;;;4936978;28;20093;-72
2022/09/01 06:02:24;;;;;;;13.95;2.85;;;15.00;66.10;;;;;;4933860;28;20056;-71
2022/09/01 06:04:55;;;;;;;9.88;2.08;;;15.00;66.20;;;;;;4920058;28;20130;-72
2022/09/01 06:07:27;;;;;;;5.10;1.70;;;15.00;66.40;;;;;;4934286;28;20511;-72
2022/09/01 06:09:55;;;;;;;5.90;1.70;;;15.00;66.60;;;;;;4934236;28;20291;-72
2022/09/01 06:12:23;;;;;;;4.40;1.70;;;15.00;66.70;;;;;;4919019;28;20051;-72
2022/09/01 06:14:53;;;;;;;6.00;1.65;;;15.00;67.00;;;;;;4934862;28;20126;-72
2022/09/01 06:17:23;;;;;;;5.32;1.88;;;15.00;67.30;;;;;;4932893;28;20845;-72
2022/09/01 06:19:51;;;;;;;4.50;1.70;;;15.00;67.50;;;;;;4927313;28;20052;-72
2022/09/01 06:22:19;;;;;;;11.57;2.03;;;15.00;67.70;;;;;;4919971;28;20249;-72
2022/09/01 06:24:46;;;;;;;5.18;1.95;;;15.00;68.00;;;;;;4926216;28;20052;-72
2022/09/01 06:27:17;;;;;;;4.85;1.70;;;15.00;68.20;;;;;;4919669;28;20051;-72
2022/09/01 06:29:48;;;;;;;5.18;1.67;;;15.00;68.10;;;;;;4933476;28;20059;-72
2022/09/01 06:32:16;;;;;;;4.90;1.83;;;15.00;68.70;;;;;;4925833;28;20128;-72
2022/09/01 06:34:44;;;;;;;3.72;1.70;;;15.00;69.00;;;;;;4944153;28;20324;-72
2022/09/01 06:37:12;;;;;;;4.43;1.90;;;15.00;69.00;;;;;;4916234;29;20056;-71
2022/09/01 06:39:43;;;;;;;3.72;1.52;;;15.00;69.20;;;;;;4901377;29;20099;-72
2022/09/01 06:42:14;;;;;;;5.50;2.00;;;15.00;69.00;;;;;;4908963;28;20046;-72
2022/09/01 06:44:51;;;;;;;4.17;1.50;;;15.00;69.40;;;;;;4934512;28;20043;-72
2022/09/01 06:47:20;;;;;;;4.10;1.95;;;15.10;69.80;;;;;;4945362;28;20264;-71
2022/09/01 06:49:47;;;;;;;4.03;1.70;;;15.10;69.70;;;;;;4936398;28;20056;-73
2022/09/01 06:52:19;;;;;;;4.07;1.75;;;15.20;69.80;;;;;;4934753;28;20526;-73
2022/09/01 06:54:47;;;;;;;4.85;1.92;;;15.20;69.70;;;;;;4919520;28;20115;-72
2022/09/01 06:57:15;;;;;;;5.17;2.07;;;15.20;69.90;;;;;;4935645;28;20047;-72
2022/09/01 06:59:42;;;;;;;5.15;1.70;;;15.30;69.90;;;;;;4933463;28;20358;-72
2022/09/01 07:02:15;;;;;;;4.00;1.60;;;15.30;70.00;;;;;;4935701;28;20139;-72
2022/09/01 07:05:20;;;;;;;4.30;1.65;;;15.40;70.00;;;;;;4943651;28;20052;-72
2022/09/01 07:07:50;;;;;;;3.30;1.60;;;15.40;69.90;;;;;;4924818;29;20122;-72
2022/09/01 07:10:44;;;;;;;4.27;1.93;;;15.40;70.00;;;;;;4934076;28;20067;-71
2022/09/01 07:13:21;;;;;;;3.70;1.67;;;15.50;69.90;;;;;;4918536;28;20260;-72
2022/09/01 07:15:50;;;;;;;5.20;1.73;;;15.50;70.10;;;;;;4925978;28;20048;-72
2022/09/01 07:18:17;;;;;;;4.20;1.75;;;15.60;70.00;;;;;;4943320;28;20134;-71
2022/09/01 07:20:47;;;;;;;4.20;1.73;;;15.60;70.10;;;;;;4952336;28;20052;-72
2022/09/01 07:23:42;;;;;;;4.00;2.00;;;15.60;70.00;;;;;;4922625;28;20051;-72
2022/09/01 07:26:16;;;;;;;5.60;1.50;;;15.70;69.90;;;;;;4934983;28;20291;-72
2022/09/01 07:28:45;;;;;;;3.45;1.65;;;15.80;70.00;;;;;;4941588;28;20107;-72
2022/09/01 07:31:22;;;;;;;3.65;1.67;;;15.80;69.90;;;;;;4934094;28;20051;-72
2022/09/01 07:33:50;;;;;;;4.07;1.70;;;15.80;70.10;;;;;;4933499;28;20597;-73
2022/09/01 07:36:19;;;;;;;4.03;1.67;;;15.90;70.00;;;;;;4935406;28;20111;-72
2022/09/01 07:38:50;;;;;;;4.57;1.95;;;16.00;70.00;;;;;;4929015;28;20647;-74
2022/09/01 07:41:17;;;;;;;7.72;1.95;;;16.00;69.70;;;;;;4923457;29;20052;-72
2022/09/01 07:44:16;;;;;;;5.93;1.60;;;16.00;69.60;;;;;;4918827;28;20048;-72
2022/09/01 07:47:03;;;;;;;4.20;1.40;;;16.10;69.70;;;;;;4951785;28;20058;-72
2022/09/01 07:49:30;;;;;;;4.40;1.53;;;16.10;69.90;;;;;;4927828;28;20079;-72
2022/09/01 07:52:00;;;;;;;4.80;1.80;;;16.20;69.80;;;;;;4947290;28;20279;-71
2022/09/01 07:54:29;;;;;;;3.85;1.80;;;16.30;69.60;;;;;;4926729;28;20075;-70
2022/09/01 07:56:57;;;;;;;4.95;1.63;;;16.40;69.50;;;;;;4917543;28;20050;-71
2022/09/01 07:59:26;;;;;;;4.03;1.48;;;16.40;69.60;;;;;;4941043;28;20051;-71
2022/09/01 08:02:04;;;;;;;4.20;1.40;;;16.50;69.50;;;;;;4932955;28;20055;-71
2022/09/01 08:04:33;;;;;;;4.13;1.35;;;16.50;69.50;;;;;;4922532;28;20332;-71
2022/09/01 08:07:01;;;;;;;3.80;1.40;;;16.60;69.20;;;;;;4925019;28;20048;-71
2022/09/01 08:09:29;;;;;;;4.82;1.50;;;16.60;69.20;;;;;;4923494;28;20055;-71
2022/09/01 08:11:56;;;;;;;3.83;1.38;;;16.70;69.20;;;;;;4934891;28;20044;-71
2022/09/01 08:14:23;;;;;;;3.57;1.43;;;16.80;69.20;;;;;;4942751;28;20146;-71
2022/09/01 08:16:51;;;;;;;3.92;1.33;;;16.80;69.10;;;;;;4939631;28;20294;-71
2022/09/01 08:19:18;;;;;;;5.05;1.55;;;16.90;69.00;;;;;;4931688;28;20167;-71
2022/09/01 08:22:05;;;;;;;3.53;1.52;;;17.00;68.90;;;;;;4964419;28;20055;-70
2022/09/01 08:24:53;;;;;;;3.20;1.38;;;17.00;68.60;;;;;;4959835;28;20139;-70
2022/09/01 08:27:21;;;;;;;6.00;1.30;;;17.20;68.40;;;;;;4959076;28;20119;-70
2022/09/01 08:29:48;;;;;;;4.75;1.27;;;17.20;68.40;;;;;;4943677;28;20748;-70
2022/09/01 08:32:15;;;;;;;3.00;1.40;;;17.20;68.50;;;;;;4921799;28;20047;-72
2022/09/01 08:34:43;;;;;;;4.70;1.30;;;17.40;68.60;;;;;;4951638;28;20143;-72
2022/09/01 08:37:12;;;;;;;3.30;1.50;;;17.40;68.50;;;;;;4959916;28;20052;-71
2022/09/01 08:39:41;;;;;;;3.13;1.30;;;17.50;68.20;;;;;;4933823;28;20095;-71
2022/09/01 08:42:15;;;;;;;3.50;1.20;;;17.60;68.00;;;;;;4936005;28;20263;-71
2022/09/01 08:44:51;;;;;;;3.63;1.20;;;17.70;67.80;;;;;;4920892;28;20047;-72
2022/09/01 08:47:19;;;;;;;5.03;1.30;;;17.80;67.70;;;;;;4938454;28;20063;-72
2022/09/01 08:49:49;;;;;;;3.10;1.15;;;17.80;67.70;;;;;;4937809;28;20043;-71
2022/09/01 08:52:29;;;;;;;3.13;1.40;;;18.00;67.50;;;;;;4937950;28;20483;-72
2022/09/01 08:55:02;;;;;;;5.40;1.42;;;18.00;67.10;;;;;;4938513;28;20337;-71
2022/09/01 08:57:33;;;;;;;4.38;1.40;;;18.10;66.90;;;;;;4922094;28;20150;-71
2022/09/01 09:00:26;;;;;;;3.80;1.10;;;18.20;66.60;;;;;;4932035;28;20056;-72
2022/09/01 09:03:09;;;;;;;2.80;1.08;;;18.30;66.20;;;;;;4938019;28;20054;-72
2022/09/01 09:05:49;;;;;;;4.43;1.20;;;18.40;66.10;;;;;;4955441;28;20606;-72
2022/09/01 09:08:44;;;;;;;3.92;1.25;;;18.50;65.90;;;;;;4955184;28;20645;-72
2022/09/01 09:11:24;;;;;;;2.75;0.98;;;18.60;65.60;;;;;;4937924;28;20163;-72
2022/09/01 09:14:02;;;;;;;3.70;1.02;;;18.70;65.00;;;;;;4921980;28;20163;-72
2022/09/01 09:16:34;;;;;;;3.90;1.05;;;18.80;64.40;;;;;;4937362;28;20071;-72
2022/09/01 09:19:05;;;;;;;3.20;0.80;;;18.80;63.90;;;;;;4954824;28;20071;-72
2022/09/01 09:21:35;;;;;;;2.80;1.00;;;19.00;64.00;;;;;;4935672;28;20359;-72
2022/09/01 09:24:09;;;;;;;2.85;0.90;;;19.10;63.60;;;;;;4921627;28;20107;-72
2022/09/01 09:26:36;;;;;;;4.03;1.15;;;19.20;63.10;;;;;;4954455;28;20482;-72
2022/09/01 09:29:04;;;;;;;2.25;0.70;;;19.20;62.80;;;;;;4954478;28;20056;-72
2022/09/01 09:31:33;;;;;;;4.00;1.03;;;19.30;62.50;;;;;;4937345;28;20058;-72
2022/09/01 09:34:02;;;;;;;16.40;1.85;;;19.40;61.90;;;;;;4954858;28;20263;-72
2022/09/01 09:36:33;;;;;;;18.00;2.00;;;19.50;61.60;;;;;;4937205;28;20135;-72
2022/09/01 09:39:12;;;;;;;5.93;1.10;;;19.50;61.50;;;;;;4938889;28;20052;-72
2022/09/01 09:41:40;;;;;;;5.90;0.70;;;19.70;61.20;;;;;;4937237;28;20065;-72
2022/09/01 09:44:19;;;;;;;6.53;1.10;;;19.70;60.40;;;;;;4958009;28;21031;-72
2022/09/01 09:46:47;;;;;;;3.80;0.60;;;19.80;60.30;;;;;;4971005;28;20256;-72
2022/09/01 09:49:22;;;;;;;3.35;0.70;;;19.90;59.70;;;;;;4942581;28;20484;-72
2022/09/01 09:51:51;;;;;;;2.38;0.70;;;20.00;59.10;;;;;;4937765;28;20446;-72
2022/09/01 09:54:23;;;;;;;2.10;0.50;;;20.00;59.10;;;;;;4936017;28;20502;-72
2022/09/01 09:57:05;;;;;;;3.33;0.60;;;20.10;58.70;;;;;;4953162;28;20532;-72
2022/09/01 09:59:35;;;;;;;2.88;0.70;;;20.20;58.70;;;;;;4954389;28;20283;-72
2022/09/01 10:02:20;;;;;;;2.90;0.60;;;20.30;57.70;;;;;;4937156;28;20111;-72
2022/09/01 10:04:47;;;;;;;2.67;0.70;;;20.30;57.70;;;;;;4937041;28;20066;-72
2022/09/01 10:07:27;;;;;;;2.42;0.63;;;20.40;57.30;;;;;;4953891;28;20047;-72
2022/09/01 10:09:59;;;;;;;2.30;0.60;;;20.50;57.30;;;;;;4954159;28;20138;-72
2022/09/01 10:12:29;;;;;;;3.60;0.70;;;20.50;56.70;;;;;;4936282;28;20691;-72
2022/09/01 10:15:01;;;;;;;5.82;0.80;;;20.60;56.00;;;;;;4937158;28;20138;-72
2022/09/01 10:17:33;;;;;;;1.95;0.50;;;20.60;55.70;;;;;;4953119;28;20051;-72
2022/09/01 10:20:05;;;;;;;24.23;1.98;;;20.70;55.70;;;;;;4952081;28;20059;-72
2022/09/01 10:22:34;;;;;;;11.60;1.70;;;20.70;55.60;;;;;;4935037;28;20514;-72
2022/09/01 10:25:04;;;;;;;3.15;0.80;;;20.80;55.20;;;;;;4951759;28;20261;-72
2022/09/01 10:27:35;;;;;;;2.40;0.60;;;20.90;54.70;;;;;;4952244;28;20062;-72
2022/09/01 10:30:07;;;;;;;2.00;0.60;;;20.90;54.40;;;;;;4933927;28;20087;-72
2022/09/01 10:32:40;;;;;;;3.22;0.82;;;21.00;54.40;;;;;;4935645;28;20056;-72
2022/09/01 10:35:12;;;;;;;3.07;0.80;;;21.10;54.50;;;;;;4954236;28;20063;-72
2022/09/01 10:37:40;;;;;;;3.10;0.70;;;21.10;54.00;;;;;;4954101;28;20336;-72
2022/09/01 10:40:37;;;;;;;3.13;0.70;;;21.20;53.70;;;;;;4936491;28;20052;-71
2022/09/01 10:43:24;;;;;;;2.97;0.55;;;21.30;53.90;;;;;;4947925;28;20062;-71
2022/09/01 10:45:51;;;;;;;3.00;0.90;;;21.40;52.60;;;;;;4953628;28;20705;-72
2022/09/01 10:48:29;;;;;;;2.80;1.00;;;21.40;52.50;;;;;;4966810;28;20056;-72
2022/09/01 10:51:43;;;;;;;3.28;0.60;;;21.40;52.60;;;;;;4958095;28;20291;-72
2022/09/01 10:55:03;;;;;;;3.00;0.70;;;21.50;53.20;;;;;;4961463;28;20059;-71
2022/09/01 10:57:41;;;;;;;3.65;0.68;;;21.50;51.70;;;;;;4941750;28;20056;-72
2022/09/01 11:01:01;;;;;;;5.38;0.63;;;21.50;52.50;;;;;;4912641;28;20047;-71
2022/09/01 11:03:53;;;;;;;12.90;1.90;;;21.60;52.10;;;;;;4934254;28;20062;-71
2022/09/01 11:06:53;;;;;;;2.40;0.60;;;21.70;52.10;;;;;;4950499;28;20758;-72
2022/09/01 11:09:26;;;;;;;4.70;0.70;;;21.70;51.60;;;;;;4952945;28;20056;-73
2022/09/01 11:12:30;;;;;;;45.78;4.72;;;21.70;51.90;;;;;;4923458;28;20084;-71
2022/09/01 11:15:00;;;;;;;4.82;0.90;;;21.70;51.50;;;;;;4962710;28;20147;-72
2022/09/01 11:17:30;;;;;;;4.33;0.80;;;21.80;51.00;;;;;;4959920;28;20147;-71
2022/09/01 11:20:03;;;;;;;25.25;2.42;;;21.80;50.70;;;;;;4935505;28;20770;-72
2022/09/01 11:22:33;;;;;;;4.07;1.00;;;21.80;50.80;;;;;;4952281;28;20056;-72
2022/09/01 11:25:36;;;;;;;6.53;0.70;;;21.90;50.50;;;;;;4939148;28;20988;-72
2022/09/01 11:28:38;;;;;;;2.28;0.63;;;21.90;50.50;;;;;;4943960;28;20058;-72
2022/09/01 11:31:31;;;;;;;25.60;2.67;;;21.90;51.80;;;;;;4957841;28;20589;-71
2022/09/01 11:34:18;;;;;;;4.70;0.82;;;21.90;51.90;;;;;;4943377;28;20288;-71
2022/09/01 11:36:54;;;;;;;6.95;1.08;;;21.90;51.40;;;;;;4944958;28;20519;-72
2022/09/01 11:39:34;;;;;;;3.72;0.70;;;22.00;51.20;;;;;;4943593;28;20131;-72
2022/09/01 11:42:06;;;;;;;21.48;2.30;;;22.00;51.20;;;;;;4938710;28;20051;-71
2022/09/01 11:44:39;;;;;;;20.13;2.10;;;22.00;50.70;;;;;;4948530;28;20666;-72
2022/09/01 11:47:15;;;;;;;10.23;1.73;;;22.10;50.40;;;;;;4940619;28;20360;-71
2022/09/01 11:49:50;;;;;;;3.58;0.80;;;22.10;49.80;;;;;;4959984;28;20164;-71
2022/09/01 11:52:18;;;;;;;4.50;0.80;;;22.10;49.90;;;;;;4942291;28;20647;-71
2022/09/01 11:54:46;;;;;;;3.17;0.93;;;22.10;49.70;;;;;;4946259;28;20039;-71
2022/09/01 11:57:23;;;;;;;8.13;0.97;;;22.20;49.70;;;;;;4940785;28;20709;-71
2022/09/01 11:59:50;;;;;;;3.15;0.70;;;22.20;49.70;;;;;;4959063;28;20262;-71
2022/09/01 12:02:21;;;;;;;2.78;0.70;;;22.20;49.80;;;;;;4962490;28;20055;-71
2022/09/01 12:04:50;;;;;;;3.15;0.80;;;22.20;49.30;;;;;;4954696;28;20915;-71
2022/09/01 12:07:27;;;;;;;29.30;3.22;;;22.30;48.90;;;;;;4971923;28;20059;-71
2022/09/01 12:09:54;;;;;;;3.07;1.00;;;22.30;48.80;;;;;;4942539;28;20629;-72
2022/09/01 12:12:33;;;;;;;5.95;1.00;;;22.30;48.90;;;;;;4926851;28;20358;-71
2022/09/01 12:15:02;;;;;;;3.28;0.80;;;22.20;48.80;;;;;;4935095;28;20473;-72
2022/09/01 12:17:30;;;;;;;4.45;0.85;;;22.30;48.80;;;;;;4932580;28;20588;-72
2022/09/01 12:20:24;;;;;;;3.42;1.10;;;22.20;48.60;;;;;;4934178;28;22040;-72
2022/09/01 12:22:52;;;;;;;3.63;0.70;;;22.20;49.10;;;;;;4950845;28;20056;-72
2022/09/01 12:25:22;;;;;;;4.32;1.00;;;22.20;49.30;;;;;;4934346;28;20280;-72
2022/09/01 12:27:49;;;;;;;5.53;0.80;;;22.30;49.60;;;;;;4951802;28;20471;-72
2022/09/01 12:30:16;;;;;;;3.72;0.70;;;22.40;49.20;;;;;;4934332;28;20058;-72
2022/09/01 12:32:45;;;;;;;4.40;0.90;;;22.50;48.50;;;;;;4951790;28;20601;-72
2022/09/01 12:35:20;;;;;;;3.57;0.80;;;22.50;48.70;;;;;;4934199;28;20040;-72
2022/09/01 12:37:49;;;;;;;3.42;0.70;;;22.50;48.30;;;;;;4932660;28;20436;-72
2022/09/01 12:40:33;;;;;;;12.52;1.42;;;22.50;48.20;;;;;;4951319;28;20051;-72
2022/09/01 12:43:00;;;;;;;10.00;1.20;;;22.50;48.10;;;;;;4951121;28;20507;-71
2022/09/01 12:45:39;;;;;;;5.90;0.90;;;22.50;48.40;;;;;;4954196;28;20189;-71
2022/09/01 12:48:22;;;;;;;4.70;1.07;;;22.50;48.70;;;;;;4944955;28;20143;-72
2022/09/01 12:50:50;;;;;;;2.80;0.80;;;22.60;48.30;;;;;;4914807;29;20313;-73
2022/09/01 12:53:28;;;;;;;20.23;2.28;;;22.60;48.00;;;;;;4945499;28;20063;-71
2022/09/01 12:56:02;;;;;;;5.13;0.95;;;22.60;47.80;;;;;;4933808;28;20123;-71
2022/09/01 12:58:30;;;;;;;2.20;0.55;;;22.60;48.00;;;;;;4918400;28;20047;-70
2022/09/01 13:01:00;;;;;;;2.30;0.60;;;22.60;48.20;;;;;;4934462;28;20542;-70
2022/09/01 13:03:30;;;;;;;2.67;0.73;;;22.70;48.00;;;;;;4934736;28;20296;-70
2022/09/01 13:05:59;;;;;;;5.07;0.88;;;22.70;48.10;;;;;;4934520;28;20166;-72
2022/09/01 13:08:28;;;;;;;3.95;0.75;;;22.70;48.10;;;;;;4950167;28;20151;-70
2022/09/01 13:10:57;;;;;;;4.80;0.80;;;22.70;48.00;;;;;;4951720;28;20047;-70
2022/09/01 13:13:26;;;;;;;4.03;0.73;;;22.70;48.10;;;;;;4934387;28;20051;-69
2022/09/01 13:15:55;;;;;;;8.20;1.00;;;22.70;47.80;;;;;;4934625;28;20252;-69